Time;durP1;ratioP1;P1;durP2;ratioP2;P2;SDS_P1;SDS_P2;PMS_P1;PMS_P2;Temp;Humidity;BMP_temperature;BMP_pressure;BME280_temperature;BME280_humidity;BME280_pressure;Samples;Min_cycle;Max_cycle;Signal;HPM_P1;HPM_P2
2022/01/01 00:01:29;;;;;;;30.80;23.80;;;12.00;99.90;;;;;;4984705;28;20421;-57
2022/01/01 00:03:55;;;;;;;28.77;23.10;;;12.00;99.90;;;;;;4982805;28;20248;-57
2022/01/01 00:06:21;;;;;;;30.93;22.10;;;12.10;99.90;;;;;;4985106;28;20201;-58
2022/01/01 00:08:46;;;;;;;35.50;23.97;;;12.20;99.90;;;;;;4982629;28;20632;-55
2022/01/01 00:11:13;;;;;;;33.93;22.80;;;12.30;99.90;;;;;;4983954;28;20421;-58
2022/01/01 00:13:39;;;;;;;31.63;23.20;;;12.30;99.90;;;;;;4981782;28;20341;-57
2022/01/01 00:16:09;;;;;;;33.70;22.67;;;12.30;99.90;;;;;;4981902;28;20479;-57
2022/01/01 00:18:38;;;;;;;31.23;23.20;;;12.40;99.90;;;;;;4984207;28;20519;-57
2022/01/01 00:21:05;;;;;;;30.90;22.90;;;12.30;99.90;;;;;;4982185;28;20433;-57
2022/01/01 00:23:31;;;;;;;32.80;24.60;;;12.00;99.90;;;;;;4981889;28;20429;-56
2022/01/01 00:25:57;;;;;;;32.40;24.70;;;12.10;99.90;;;;;;4982724;28;20641;-57
2022/01/01 00:28:23;;;;;;;36.47;24.57;;;12.20;99.90;;;;;;4982818;28;20528;-57
2022/01/01 00:30:48;;;;;;;33.00;24.33;;;12.10;99.90;;;;;;4982228;28;20257;-58
2022/01/01 00:33:14;;;;;;;29.47;22.97;;;12.10;99.90;;;;;;4982885;28;20659;-57
2022/01/01 00:35:40;;;;;;;37.57;23.13;;;12.00;99.90;;;;;;4982700;28;20221;-57
2022/01/01 00:38:06;;;;;;;33.17;23.83;;;12.00;99.90;;;;;;4982353;28;20177;-57
2022/01/01 00:40:32;;;;;;;29.57;21.63;;;11.80;99.90;;;;;;4983324;28;20644;-56
2022/01/01 00:43:00;;;;;;;36.70;26.83;;;11.80;99.90;;;;;;4983100;28;20970;-57
2022/01/01 00:45:25;;;;;;;33.50;26.73;;;11.80;99.90;;;;;;4982037;28;20251;-58
2022/01/01 00:47:51;;;;;;;46.53;32.00;;;11.80;99.90;;;;;;4982533;28;20993;-56
2022/01/01 00:50:17;;;;;;;46.13;31.53;;;11.80;99.90;;;;;;4982939;28;20197;-56
2022/01/01 00:52:44;;;;;;;44.00;32.60;;;11.80;99.90;;;;;;4982469;28;20224;-58
2022/01/01 00:55:10;;;;;;;39.27;29.23;;;11.80;99.90;;;;;;4981695;28;20308;-57
2022/01/01 00:57:36;;;;;;;43.03;31.03;;;11.70;99.90;;;;;;4984600;28;20421;-57
2022/01/01 01:00:02;;;;;;;43.60;30.10;;;11.60;99.90;;;;;;4983928;28;20456;-55
2022/01/01 01:02:28;;;;;;;46.90;31.33;;;11.50;99.90;;;;;;4983603;28;20205;-57
2022/01/01 01:04:53;;;;;;;36.30;23.87;;;11.50;99.90;;;;;;4983527;28;20449;-55
2022/01/01 01:07:19;;;;;;;30.10;18.80;;;11.50;99.90;;;;;;4982808;28;20189;-55
2022/01/01 01:09:44;;;;;;;33.23;20.00;;;11.40;99.90;;;;;;4983525;28;20198;-55
2022/01/01 01:12:10;;;;;;;27.60;20.60;;;11.60;99.90;;;;;;4981871;28;20592;-54
2022/01/01 01:14:40;;;;;;;27.80;19.80;;;11.40;99.90;;;;;;4982840;28;20603;-58
2022/01/01 01:17:07;;;;;;;24.23;16.60;;;11.40;99.90;;;;;;4969946;28;20196;-57
2022/01/01 01:19:33;;;;;;;26.20;17.40;;;11.40;99.90;;;;;;4982004;28;20833;-57
2022/01/01 01:21:58;;;;;;;25.37;16.90;;;11.30;99.90;;;;;;4984583;28;20997;-57
2022/01/01 01:24:25;;;;;;;22.53;15.17;;;11.40;99.90;;;;;;4981712;28;20527;-56
2022/01/01 01:26:52;;;;;;;20.90;12.80;;;11.40;99.90;;;;;;4985424;28;20579;-57
2022/01/01 01:29:19;;;;;;;19.80;13.10;;;11.50;99.90;;;;;;4983731;28;20443;-56
2022/01/01 01:31:45;;;;;;;20.40;14.10;;;11.50;99.90;;;;;;4983122;28;20417;-58
2022/01/01 01:34:11;;;;;;;16.93;12.47;;;11.50;99.90;;;;;;4965639;28;20429;-57
2022/01/01 01:36:36;;;;;;;18.43;12.70;;;11.30;99.90;;;;;;4982750;28;20441;-56
2022/01/01 01:39:02;;;;;;;16.40;12.43;;;11.30;99.90;;;;;;4982701;28;20955;-57
2022/01/01 01:41:30;;;;;;;24.50;13.97;;;11.30;99.90;;;;;;4984027;28;20209;-57
2022/01/01 01:43:58;;;;;;;14.97;12.63;;;11.40;99.90;;;;;;4983670;28;20421;-56
2022/01/01 01:46:25;;;;;;;19.83;12.97;;;11.50;99.90;;;;;;4984779;28;20960;-57
2022/01/01 01:48:51;;;;;;;17.07;12.83;;;11.40;99.90;;;;;;4981434;28;20433;-55
2022/01/01 01:51:17;;;;;;;15.20;12.30;;;11.40;99.90;;;;;;4984945;28;20962;-57
2022/01/01 01:53:43;;;;;;;16.67;12.67;;;11.50;99.90;;;;;;4984069;28;20421;-55
2022/01/01 01:56:09;;;;;;;16.40;11.83;;;11.30;99.90;;;;;;4990725;28;20975;-56
2022/01/01 01:58:35;;;;;;;16.60;12.57;;;11.30;99.90;;;;;;4987249;28;20189;-57
2022/01/01 02:01:20;;;;;;;14.50;10.63;;;11.40;99.90;;;;;;4985599;28;20190;-57
2022/01/01 02:03:47;;;;;;;17.57;11.30;;;11.30;99.90;;;;;;4984834;28;20860;-57
2022/01/01 02:06:12;;;;;;;14.97;11.20;;;11.30;99.90;;;;;;4983500;28;20536;-57
2022/01/01 02:08:38;;;;;;;18.03;12.53;;;11.30;99.90;;;;;;4984345;28;20507;-55
2022/01/01 02:11:04;;;;;;;18.17;11.00;;;11.20;99.90;;;;;;4985017;28;20182;-59
2022/01/01 02:13:35;;;;;;;15.80;11.80;;;11.30;99.90;;;;;;4986013;28;20186;-55
2022/01/01 02:16:31;;;;;;;12.77;10.17;;;11.20;99.90;;;;;;4985267;28;20198;-57
2022/01/01 02:18:56;;;;;;;16.10;11.57;;;11.20;99.90;;;;;;4987586;28;20826;-55
2022/01/01 02:21:23;;;;;;;15.10;11.30;;;11.10;99.90;;;;;;4984767;28;20433;-56
2022/01/01 02:23:57;;;;;;;17.47;11.77;;;11.10;99.90;;;;;;4986922;28;20186;-56
2022/01/01 02:26:29;;;;;;;14.20;10.90;;;11.30;99.90;;;;;;4986195;28;20468;-57
2022/01/01 02:28:55;;;;;;;14.07;10.90;;;11.40;99.90;;;;;;4987222;28;20429;-57
2022/01/01 02:31:20;;;;;;;16.37;11.53;;;11.40;99.90;;;;;;4988121;28;20429;-55
2022/01/01 02:33:46;;;;;;;17.90;11.30;;;11.30;99.90;;;;;;4986061;28;20246;-55
2022/01/01 02:36:12;;;;;;;16.00;11.03;;;11.20;99.90;;;;;;4986169;28;20198;-54
2022/01/01 02:38:38;;;;;;;18.50;12.30;;;11.30;99.90;;;;;;4984756;28;20670;-56
2022/01/01 02:41:04;;;;;;;19.83;12.77;;;11.40;99.90;;;;;;4986047;28;20236;-59
2022/01/01 02:43:31;;;;;;;18.60;13.10;;;11.40;99.90;;;;;;4986039;28;20479;-56
2022/01/01 02:45:57;;;;;;;15.77;11.97;;;11.40;99.90;;;;;;4981407;28;20580;-55
2022/01/01 02:48:23;;;;;;;18.10;13.60;;;11.50;99.90;;;;;;4986178;28;20437;-56
2022/01/01 02:50:51;;;;;;;19.67;12.70;;;11.50;99.90;;;;;;4984684;28;20433;-57
2022/01/01 02:53:17;;;;;;;16.57;13.03;;;11.50;99.90;;;;;;4985229;28;20186;-56
2022/01/01 02:55:44;;;;;;;20.00;13.97;;;11.40;99.90;;;;;;4983918;28;20895;-54
2022/01/01 02:58:11;;;;;;;15.20;12.83;;;11.40;99.90;;;;;;4983001;28;20182;-56
2022/01/01 03:00:38;;;;;;;19.40;13.77;;;11.50;99.90;;;;;;4984647;28;20523;-58
2022/01/01 03:03:03;;;;;;;19.80;14.07;;;11.40;99.90;;;;;;4981796;28;20426;-57
2022/01/01 03:05:30;;;;;;;23.23;15.10;;;11.50;99.90;;;;;;4984503;28;20488;-57
2022/01/01 03:07:56;;;;;;;21.33;13.57;;;11.40;99.90;;;;;;4985839;28;20236;-53
2022/01/01 03:10:22;;;;;;;20.50;13.97;;;11.50;99.90;;;;;;4986250;28;20441;-56
2022/01/01 03:12:48;;;;;;;19.37;13.77;;;11.40;99.90;;;;;;4981876;28;20433;-56
2022/01/01 03:15:14;;;;;;;22.23;14.70;;;11.50;99.90;;;;;;4985112;28;20210;-57
2022/01/01 03:17:39;;;;;;;20.77;15.37;;;11.40;99.90;;;;;;4986125;28;20182;-56
2022/01/01 03:20:06;;;;;;;19.70;14.50;;;11.50;99.90;;;;;;4983173;28;20469;-57
2022/01/01 03:22:32;;;;;;;19.90;14.93;;;11.40;99.90;;;;;;4982437;28;20267;-57
2022/01/01 03:24:57;;;;;;;21.53;15.03;;;11.40;99.90;;;;;;4984691;28;20871;-56
2022/01/01 03:27:23;;;;;;;22.43;15.80;;;11.40;99.90;;;;;;4982793;28;20189;-55
2022/01/01 03:29:48;;;;;;;23.73;16.13;;;11.30;99.90;;;;;;4985346;28;20275;-56
2022/01/01 03:32:15;;;;;;;26.60;15.93;;;11.30;99.90;;;;;;4983334;28;20643;-54
2022/01/01 03:34:41;;;;;;;23.63;16.20;;;11.40;99.90;;;;;;4986766;28;20205;-56
2022/01/01 03:37:07;;;;;;;25.57;16.67;;;11.40;99.90;;;;;;4966433;28;21008;-56
2022/01/01 03:39:32;;;;;;;24.07;17.07;;;11.50;99.90;;;;;;4982385;28;20472;-57
2022/01/01 03:41:58;;;;;;;23.97;15.13;;;11.50;99.90;;;;;;4967996;28;20197;-56
2022/01/01 03:44:24;;;;;;;36.90;16.93;;;11.50;99.90;;;;;;4984582;28;20194;-57
2022/01/01 03:46:50;;;;;;;26.93;16.17;;;11.50;99.90;;;;;;4985595;28;20185;-56
2022/01/01 03:49:15;;;;;;;23.37;15.70;;;11.50;99.90;;;;;;4982962;28;20240;-57
2022/01/01 03:51:41;;;;;;;22.80;15.80;;;11.50;99.90;;;;;;4982164;28;20442;-57
2022/01/01 03:54:07;;;;;;;23.10;16.47;;;11.50;99.90;;;;;;4983206;28;20587;-55
2022/01/01 03:56:32;;;;;;;25.80;16.97;;;11.40;99.90;;;;;;4982866;28;20186;-55
2022/01/01 03:58:58;;;;;;;23.97;15.47;;;11.50;99.90;;;;;;4985830;28;20198;-57
2022/01/01 04:01:24;;;;;;;19.20;15.17;;;11.50;99.90;;;;;;4981890;28;20196;-57
2022/01/01 04:03:49;;;;;;;18.33;14.00;;;11.50;99.90;;;;;;4983731;28;20181;-54
2022/01/01 04:06:15;;;;;;;19.53;15.03;;;11.50;99.90;;;;;;4965785;28;20559;-54
2022/01/01 04:08:40;;;;;;;28.83;16.83;;;11.40;99.90;;;;;;4982088;28;20553;-55
2022/01/01 04:11:06;;;;;;;22.10;15.00;;;11.30;99.90;;;;;;4983988;28;20185;-58
2022/01/01 04:13:32;;;;;;;24.63;14.73;;;11.30;99.90;;;;;;4984386;28;20189;-55
2022/01/01 04:15:57;;;;;;;27.90;15.13;;;11.30;99.90;;;;;;4980190;28;20205;-57
2022/01/01 04:18:38;;;;;;;21.53;14.70;;;11.20;99.90;;;;;;4980218;28;20186;-57
2022/01/01 04:21:14;;;;;;;23.77;15.60;;;11.20;99.90;;;;;;4982852;28;20189;-57
2022/01/01 04:23:41;;;;;;;21.77;14.70;;;11.40;99.90;;;;;;4986313;28;20405;-57
2022/01/01 04:26:07;;;;;;;17.30;13.90;;;11.40;99.90;;;;;;4983097;28;20449;-57
2022/01/01 04:28:33;;;;;;;24.70;15.30;;;11.40;99.90;;;;;;4981012;28;20456;-56
2022/01/01 04:30:59;;;;;;;23.03;14.53;;;11.20;99.90;;;;;;4983261;28;20769;-58
2022/01/01 04:33:25;;;;;;;20.40;15.30;;;11.10;99.90;;;;;;4982463;28;20433;-57
2022/01/01 04:35:50;;;;;;;22.17;15.13;;;11.20;99.90;;;;;;4984701;28;20204;-56
2022/01/01 04:41:00;;;;;;;30.00;14.80;;;11.30;99.90;;;;;;4982995;28;20204;-56
2022/01/01 04:43:26;;;;;;;20.20;14.80;;;11.30;99.90;;;;;;4981982;28;20417;-58
2022/01/01 04:45:52;;;;;;;22.10;14.00;;;11.40;99.90;;;;;;4983218;28;20264;-57
2022/01/01 04:48:17;;;;;;;22.40;15.93;;;11.30;99.90;;;;;;4985478;28;20182;-55
2022/01/01 04:50:43;;;;;;;23.30;15.13;;;11.20;99.90;;;;;;4981900;28;20207;-57
2022/01/01 04:53:13;;;;;;;19.70;14.50;;;11.40;99.90;;;;;;4983718;28;20849;-56
2022/01/01 04:55:39;;;;;;;21.83;14.47;;;11.50;99.90;;;;;;4982278;28;20209;-58
2022/01/01 04:58:05;;;;;;;22.80;14.20;;;11.50;99.90;;;;;;4982016;28;20891;-56
2022/01/01 05:00:30;;;;;;;22.03;15.00;;;11.50;99.90;;;;;;4982534;28;20214;-58
2022/01/01 05:02:56;;;;;;;19.77;13.97;;;11.30;99.90;;;;;;4979060;28;20197;-57
2022/01/01 05:05:21;;;;;;;26.27;14.63;;;11.30;99.90;;;;;;4983371;28;20206;-56
2022/01/01 05:07:47;;;;;;;20.93;14.17;;;11.20;99.90;;;;;;4985430;28;20348;-57
2022/01/01 05:10:12;;;;;;;25.80;16.03;;;11.00;99.90;;;;;;4981363;28;20197;-57
2022/01/01 05:12:38;;;;;;;20.57;14.03;;;11.20;99.90;;;;;;4983375;28;20658;-57
2022/01/01 05:15:04;;;;;;;19.97;14.70;;;11.30;99.90;;;;;;4983658;28;20225;-58
2022/01/01 05:17:29;;;;;;;18.97;14.60;;;11.30;99.90;;;;;;4978439;28;20561;-57
2022/01/01 05:19:55;;;;;;;20.23;14.83;;;11.20;99.90;;;;;;4980647;28;20610;-57
2022/01/01 05:22:21;;;;;;;20.83;16.03;;;11.10;99.90;;;;;;4983354;28;20175;-58
2022/01/01 05:24:46;;;;;;;21.37;14.80;;;11.10;99.90;;;;;;4982107;28;20296;-57
2022/01/01 05:27:12;;;;;;;20.67;14.53;;;11.20;99.90;;;;;;4980733;28;20190;-58
2022/01/01 05:29:37;;;;;;;20.87;13.73;;;10.90;99.90;;;;;;4984578;28;20198;-57
2022/01/01 05:32:03;;;;;;;18.70;14.00;;;11.00;99.90;;;;;;4987687;28;20194;-55
2022/01/01 05:34:29;;;;;;;18.57;14.27;;;11.20;99.90;;;;;;4983006;28;20511;-57
2022/01/01 05:36:54;;;;;;;21.37;13.47;;;11.20;99.90;;;;;;4983793;28;20683;-57
2022/01/01 05:39:20;;;;;;;19.50;13.80;;;11.10;99.90;;;;;;4985232;28;20208;-58
2022/01/01 05:41:45;;;;;;;21.57;14.63;;;11.20;99.90;;;;;;4984720;28;20185;-57
2022/01/01 05:44:11;;;;;;;19.07;12.50;;;11.00;99.90;;;;;;4984700;28;20265;-58
2022/01/01 05:46:37;;;;;;;21.20;13.83;;;10.90;99.90;;;;;;4968410;28;20196;-56
2022/01/01 05:49:02;;;;;;;20.03;13.27;;;11.00;99.90;;;;;;4987460;28;20197;-58
2022/01/01 05:51:28;;;;;;;17.27;12.87;;;11.00;99.90;;;;;;4984681;28;20306;-57
2022/01/01 05:53:54;;;;;;;17.83;14.43;;;11.00;99.90;;;;;;4985831;28;20190;-58
2022/01/01 05:56:19;;;;;;;22.40;14.63;;;11.10;99.90;;;;;;4985148;28;20213;-59
2022/01/01 05:58:45;;;;;;;19.07;13.33;;;11.10;99.90;;;;;;4987494;28;20206;-57
2022/01/01 06:01:11;;;;;;;20.80;15.00;;;11.10;99.90;;;;;;4982313;28;20281;-57
2022/01/01 06:03:36;;;;;;;19.83;14.43;;;11.00;99.90;;;;;;4985599;28;20485;-58
2022/01/01 06:06:02;;;;;;;20.63;14.20;;;10.70;99.90;;;;;;4986574;28;20239;-57
2022/01/01 06:08:28;;;;;;;22.60;13.67;;;10.80;99.90;;;;;;4981520;28;20594;-57
2022/01/01 06:10:55;;;;;;;21.93;14.17;;;10.70;99.90;;;;;;4986390;28;20565;-58
2022/01/01 06:13:20;;;;;;;20.50;13.83;;;10.60;99.90;;;;;;4983487;28;20808;-56
2022/01/01 06:15:46;;;;;;;19.50;14.80;;;10.60;99.90;;;;;;4969046;28;20464;-57
2022/01/01 06:18:12;;;;;;;24.10;13.97;;;10.50;99.90;;;;;;4985521;28;20230;-57
2022/01/01 06:20:37;;;;;;;18.80;13.93;;;10.40;99.90;;;;;;4983360;28;20205;-58
2022/01/01 06:23:05;;;;;;;19.23;14.57;;;10.60;99.90;;;;;;4983352;28;20186;-58
2022/01/01 06:25:31;;;;;;;19.20;14.23;;;10.60;99.90;;;;;;4984612;28;20222;-58
2022/01/01 06:27:56;;;;;;;19.90;13.80;;;10.70;99.90;;;;;;4987288;28;20429;-57
2022/01/01 06:30:22;;;;;;;26.60;14.73;;;10.90;99.90;;;;;;4983700;28;20614;-57
2022/01/01 06:32:50;;;;;;;17.70;13.83;;;10.90;99.90;;;;;;4984601;28;20240;-57
2022/01/01 06:35:16;;;;;;;17.60;13.50;;;10.90;99.90;;;;;;4984090;28;20236;-58
2022/01/01 06:37:42;;;;;;;18.70;13.10;;;11.00;99.90;;;;;;4983885;28;20919;-57
2022/01/01 06:40:08;;;;;;;18.10;12.83;;;10.90;99.90;;;;;;4986114;28;20224;-58
2022/01/01 06:42:33;;;;;;;20.73;14.60;;;11.00;99.90;;;;;;4981496;28;20212;-57
2022/01/01 06:44:59;;;;;;;19.63;13.20;;;10.70;99.90;;;;;;4986015;28;20545;-57
2022/01/01 06:47:25;;;;;;;18.70;12.83;;;10.80;99.90;;;;;;4984595;28;20616;-57
2022/01/01 06:49:50;;;;;;;15.83;12.13;;;10.90;99.90;;;;;;4982985;28;20217;-58
2022/01/01 06:52:16;;;;;;;20.03;13.77;;;10.80;99.90;;;;;;4985212;28;20198;-57
2022/01/01 06:54:41;;;;;;;18.53;12.57;;;10.80;99.90;;;;;;4988065;28;22074;-57
2022/01/01 06:57:07;;;;;;;20.23;13.63;;;10.80;99.90;;;;;;4986212;28;20249;-57
2022/01/01 06:59:33;;;;;;;16.43;12.00;;;10.70;99.90;;;;;;4969107;28;20255;-56
2022/01/01 07:01:58;;;;;;;16.90;12.23;;;10.70;99.90;;;;;;4984764;28;20671;-56
2022/01/01 07:04:24;;;;;;;15.80;12.33;;;10.70;99.90;;;;;;4982986;28;20531;-57
2022/01/01 07:06:50;;;;;;;20.93;13.60;;;10.80;99.90;;;;;;4983081;28;20300;-55
2022/01/01 07:09:15;;;;;;;16.60;11.13;;;10.80;99.90;;;;;;4983483;28;20244;-56
2022/01/01 07:11:42;;;;;;;16.30;13.10;;;11.00;99.90;;;;;;4980922;28;20195;-56
2022/01/01 07:14:09;;;;;;;19.60;13.47;;;10.60;99.90;;;;;;4982401;28;20188;-55
2022/01/01 07:16:34;;;;;;;20.17;12.70;;;10.70;99.90;;;;;;4984600;28;20579;-58
2022/01/01 07:19:00;;;;;;;17.97;12.90;;;10.60;99.90;;;;;;4985508;28;20551;-58
2022/01/01 07:21:26;;;;;;;17.03;12.50;;;10.60;99.90;;;;;;4983109;28;20228;-57
2022/01/01 07:23:51;;;;;;;18.30;14.50;;;10.60;99.90;;;;;;4982912;28;20182;-56
2022/01/01 07:26:17;;;;;;;18.20;12.27;;;10.60;99.90;;;;;;4985159;28;20236;-56
2022/01/01 07:28:44;;;;;;;17.73;12.50;;;10.60;99.90;;;;;;4966387;28;20221;-57
2022/01/01 07:31:09;;;;;;;20.60;13.50;;;10.60;99.90;;;;;;4986668;28;20919;-56
2022/01/01 07:33:35;;;;;;;16.80;12.13;;;10.40;99.90;;;;;;4983708;28;20482;-57
2022/01/01 07:36:01;;;;;;;17.57;12.47;;;10.40;99.90;;;;;;4985098;28;20321;-56
2022/01/01 07:38:26;;;;;;;16.83;12.17;;;10.50;99.90;;;;;;4982723;28;20492;-57
2022/01/01 07:40:53;;;;;;;22.47;13.80;;;10.40;99.90;;;;;;4983533;28;20301;-57
2022/01/01 07:43:20;;;;;;;17.87;13.10;;;10.30;99.90;;;;;;4984586;28;20264;-58
2022/01/01 07:45:46;;;;;;;18.43;14.70;;;10.10;99.90;;;;;;4981931;28;20850;-57
2022/01/01 07:48:12;;;;;;;21.03;14.67;;;10.10;99.90;;;;;;4984471;28;20426;-57
2022/01/01 07:50:38;;;;;;;19.57;13.57;;;10.40;99.90;;;;;;4984361;28;20439;-57
2022/01/01 07:53:05;;;;;;;19.80;13.50;;;10.00;99.90;;;;;;4984351;28;20192;-57
2022/01/01 07:55:31;;;;;;;22.17;13.00;;;9.90;99.90;;;;;;4983404;28;20860;-56
2022/01/01 07:57:57;;;;;;;20.90;12.83;;;10.20;99.90;;;;;;4982427;28;20436;-57
2022/01/01 08:00:22;;;;;;;16.00;12.13;;;10.20;99.90;;;;;;4967506;28;20476;-55
2022/01/01 08:02:48;;;;;;;18.80;13.00;;;10.50;99.90;;;;;;4983178;28;20194;-59
2022/01/01 08:05:17;;;;;;;15.00;11.13;;;10.60;99.90;;;;;;4984743;28;20206;-56
2022/01/01 08:07:44;;;;;;;15.77;12.20;;;10.40;99.90;;;;;;4982341;28;21010;-57
2022/01/01 08:10:11;;;;;;;20.37;11.83;;;10.30;99.90;;;;;;4967079;28;20949;-56
2022/01/01 08:12:37;;;;;;;17.77;12.60;;;10.50;99.90;;;;;;4982060;28;20440;-57
2022/01/01 08:15:06;;;;;;;19.97;13.40;;;10.60;99.90;;;;;;4983579;28;20883;-57
2022/01/01 08:17:32;;;;;;;18.90;12.00;;;10.60;99.90;;;;;;4985183;28;20273;-57
2022/01/01 08:19:58;;;;;;;17.60;12.13;;;10.60;99.90;;;;;;4984275;28;20969;-56
2022/01/01 08:22:24;;;;;;;15.93;11.47;;;10.90;99.90;;;;;;4983690;28;20476;-57
2022/01/01 08:24:50;;;;;;;14.30;11.53;;;10.80;99.90;;;;;;4967117;28;20492;-56
2022/01/01 08:27:15;;;;;;;17.27;11.33;;;10.80;99.90;;;;;;4980069;28;20440;-57
2022/01/01 08:29:41;;;;;;;18.27;11.67;;;10.80;99.90;;;;;;4985895;28;20186;-56
2022/01/01 08:32:07;;;;;;;17.20;10.93;;;10.90;99.90;;;;;;4984485;28;20395;-57
2022/01/01 08:34:33;;;;;;;15.63;11.70;;;11.00;99.90;;;;;;4985923;28;20301;-57
2022/01/01 08:37:00;;;;;;;14.47;10.20;;;10.80;99.90;;;;;;4983080;28;21065;-58
2022/01/01 08:39:25;;;;;;;13.23;10.33;;;10.80;99.90;;;;;;4984223;28;20564;-57
2022/01/01 08:41:51;;;;;;;15.10;10.53;;;11.00;99.90;;;;;;4985390;28;20188;-56
2022/01/01 08:44:17;;;;;;;15.80;10.90;;;11.00;99.90;;;;;;4982662;28;20201;-57
2022/01/01 08:46:42;;;;;;;14.23;10.67;;;10.90;99.90;;;;;;4987116;28;20181;-58
2022/01/01 08:49:09;;;;;;;19.50;12.57;;;10.80;99.90;;;;;;4982771;28;20194;-57
2022/01/01 08:51:37;;;;;;;13.57;9.97;;;10.60;99.90;;;;;;4970474;28;20659;-59
2022/01/01 08:54:03;;;;;;;14.10;10.20;;;10.60;99.90;;;;;;4983523;28;20861;-54
2022/01/01 08:56:30;;;;;;;16.90;12.70;;;10.80;99.90;;;;;;4983748;28;20487;-59
2022/01/01 08:58:55;;;;;;;14.73;11.00;;;10.80;99.90;;;;;;4985077;28;20836;-57
2022/01/01 09:01:21;;;;;;;14.90;10.70;;;10.80;99.90;;;;;;4981406;28;20441;-58
2022/01/01 09:03:47;;;;;;;16.97;10.57;;;10.90;99.90;;;;;;4983574;28;20218;-56
2022/01/01 09:06:13;;;;;;;23.20;10.80;;;11.20;99.90;;;;;;4988214;28;20873;-58
2022/01/01 09:08:41;;;;;;;17.40;12.40;;;11.50;99.90;;;;;;4985540;28;20182;-58
2022/01/01 09:11:12;;;;;;;17.20;11.63;;;11.60;99.90;;;;;;4988189;28;20170;-57
2022/01/01 09:13:42;;;;;;;13.23;10.23;;;11.50;99.90;;;;;;4986783;28;20428;-57
2022/01/01 09:16:10;;;;;;;14.50;11.10;;;11.30;99.90;;;;;;4987178;28;20822;-58
2022/01/01 09:18:40;;;;;;;19.60;10.87;;;11.20;99.90;;;;;;4986946;28;20503;-58
2022/01/01 09:21:06;;;;;;;13.90;10.83;;;11.10;99.90;;;;;;4987546;28;21000;-57
2022/01/01 09:23:32;;;;;;;15.73;11.87;;;11.50;99.90;;;;;;4988629;28;20425;-58
2022/01/01 09:26:00;;;;;;;13.27;10.37;;;11.60;99.90;;;;;;4986408;28;20465;-57
2022/01/01 09:28:26;;;;;;;15.53;11.10;;;11.60;99.90;;;;;;4986873;28;20186;-57
2022/01/01 09:30:52;;;;;;;13.47;9.97;;;11.50;99.90;;;;;;4988765;28;20498;-58
2022/01/01 09:33:17;;;;;;;16.13;10.43;;;11.60;99.90;;;;;;4986277;28;20437;-58
2022/01/01 09:35:43;;;;;;;16.13;12.40;;;11.50;99.90;;;;;;4986088;28;20724;-58
2022/01/01 09:38:08;;;;;;;15.80;13.00;;;11.70;99.90;;;;;;4984066;28;21179;-58
2022/01/01 09:40:35;;;;;;;14.77;11.27;;;11.70;99.90;;;;;;4988253;28;20212;-59
2022/01/01 09:43:02;;;;;;;16.50;10.93;;;11.70;99.90;;;;;;4986870;28;20190;-56
2022/01/01 09:45:29;;;;;;;14.53;10.60;;;11.70;99.90;;;;;;4987205;28;20494;-58
2022/01/01 09:47:55;;;;;;;14.27;11.10;;;11.50;99.90;;;;;;4985250;28;20418;-58
2022/01/01 09:50:20;;;;;;;15.73;11.00;;;11.60;99.90;;;;;;4987101;28;20432;-58
2022/01/01 09:52:46;;;;;;;14.30;10.10;;;11.40;99.90;;;;;;4983796;28;20827;-59
2022/01/01 09:55:11;;;;;;;12.90;10.27;;;11.60;99.90;;;;;;4985319;28;20217;-58
2022/01/01 09:57:37;;;;;;;13.00;9.90;;;11.60;99.90;;;;;;4989157;28;20411;-59
2022/01/01 10:00:04;;;;;;;15.93;11.00;;;11.60;99.90;;;;;;4985517;28;20276;-56
2022/01/01 10:02:30;;;;;;;14.97;10.63;;;11.50;99.90;;;;;;4985391;28;20198;-58
2022/01/01 10:05:03;;;;;;;13.27;10.60;;;11.70;99.90;;;;;;4984753;28;20441;-57
2022/01/01 10:07:29;;;;;;;17.33;10.77;;;11.70;99.90;;;;;;4986403;28;20435;-56
2022/01/01 10:09:55;;;;;;;13.50;9.53;;;11.50;99.90;;;;;;4973053;28;20422;-58
2022/01/01 10:12:40;;;;;;;12.40;9.80;;;11.40;99.90;;;;;;4985616;28;20221;-58
2022/01/01 10:15:06;;;;;;;14.87;9.10;;;11.30;99.90;;;;;;4982632;28;20464;-57
2022/01/01 10:17:32;;;;;;;13.60;9.43;;;11.30;99.90;;;;;;4987398;28;20425;-58
2022/01/01 10:19:58;;;;;;;11.97;8.63;;;11.40;99.90;;;;;;4982299;28;20483;-57
2022/01/01 10:22:24;;;;;;;10.47;8.60;;;11.60;99.90;;;;;;4985360;28;20182;-58
2022/01/01 10:27:58;;;;;;;10.63;7.50;;;11.80;99.90;;;;;;4986821;28;20554;-57
2022/01/01 10:30:39;;;;;;;12.40;8.40;;;11.90;99.90;;;;;;4983123;28;20447;-57
2022/01/01 10:33:14;;;;;;;11.00;8.90;;;12.00;99.90;;;;;;4968571;28;20489;-57
2022/01/01 10:35:52;;;;;;;12.10;9.00;;;12.10;99.90;;;;;;4983651;28;20443;-57
2022/01/01 10:38:28;;;;;;;10.43;7.93;;;12.10;99.90;;;;;;4985817;28;20429;-58
2022/01/01 10:41:15;;;;;;;11.13;8.67;;;12.10;99.90;;;;;;4984372;28;20464;-55
2022/01/01 10:43:43;;;;;;;10.87;8.23;;;12.00;99.90;;;;;;4983559;28;20487;-58
2022/01/01 10:46:14;;;;;;;9.40;7.60;;;12.10;99.90;;;;;;4985573;28;20444;-58
2022/01/01 10:48:53;;;;;;;11.70;8.10;;;12.20;99.90;;;;;;4982081;28;20791;-58
2022/01/01 10:51:19;;;;;;;12.70;9.77;;;12.40;99.90;;;;;;4983321;28;20420;-57
2022/01/01 10:53:45;;;;;;;10.30;7.90;;;12.40;99.90;;;;;;4984092;28;20467;-58
2022/01/01 10:56:19;;;;;;;10.77;6.90;;;12.40;99.90;;;;;;4968449;28;20963;-59
2022/01/01 10:58:44;;;;;;;12.10;9.03;;;12.60;99.90;;;;;;4982232;28;20261;-58
2022/01/01 11:01:11;;;;;;;13.60;8.60;;;12.60;99.90;;;;;;4982853;28;20432;-57
2022/01/01 11:03:36;;;;;;;12.77;8.40;;;12.40;99.90;;;;;;4985145;28;20186;-57
2022/01/01 11:06:07;;;;;;;10.70;8.10;;;12.50;99.90;;;;;;4983430;28;20480;-56
2022/01/01 11:08:34;;;;;;;10.10;7.37;;;12.50;99.90;;;;;;4980604;28;20193;-57
2022/01/01 11:11:00;;;;;;;10.20;6.97;;;12.40;99.90;;;;;;4984114;28;20434;-59
2022/01/01 11:13:26;;;;;;;9.10;6.77;;;12.50;99.90;;;;;;4982741;28;20484;-57
2022/01/01 11:15:52;;;;;;;9.40;6.80;;;12.60;99.90;;;;;;4983467;28;21163;-58
2022/01/01 11:18:18;;;;;;;8.20;6.30;;;12.70;99.90;;;;;;4985577;28;20202;-58
2022/01/01 11:20:44;;;;;;;7.63;6.30;;;12.90;99.90;;;;;;4982890;28;20349;-57
2022/01/01 11:23:11;;;;;;;10.43;6.43;;;13.00;99.90;;;;;;4984821;28;20579;-58
2022/01/01 11:25:39;;;;;;;8.40;5.70;;;12.90;99.90;;;;;;4984171;28;20473;-58
2022/01/01 11:28:09;;;;;;;9.67;6.10;;;13.00;99.90;;;;;;4985236;28;20432;-57
2022/01/01 11:30:38;;;;;;;7.70;5.97;;;13.10;99.90;;;;;;4981988;28;20456;-58
2022/01/01 11:33:04;;;;;;;7.17;6.37;;;13.10;99.90;;;;;;4984005;28;20440;-57
2022/01/01 11:35:33;;;;;;;6.80;5.60;;;13.10;99.90;;;;;;4983898;28;20453;-55
2022/01/01 11:38:04;;;;;;;6.73;5.23;;;13.10;99.90;;;;;;4982029;28;20206;-57
2022/01/01 11:40:45;;;;;;;6.90;5.17;;;13.20;99.90;;;;;;4984487;28;20838;-56
2022/01/01 11:43:56;;;;;;;5.43;4.80;;;13.40;99.90;;;;;;4982681;28;20433;-58
2022/01/01 11:46:27;;;;;;;6.93;5.23;;;13.50;99.90;;;;;;4977325;28;20469;-58
2022/01/01 11:49:02;;;;;;;6.07;4.87;;;13.50;99.90;;;;;;4983556;28;20436;-58
2022/01/01 11:51:33;;;;;;;5.20;4.70;;;13.70;99.90;;;;;;4981984;28;20429;-57
2022/01/01 11:54:18;;;;;;;5.13;4.60;;;13.90;99.90;;;;;;4981027;28;20452;-58
2022/01/01 11:56:49;;;;;;;7.13;4.40;;;14.20;99.90;;;;;;4981873;28;20438;-56
2022/01/01 11:59:23;;;;;;;8.83;4.80;;;14.40;99.90;;;;;;4966076;28;20907;-58
2022/01/01 12:01:51;;;;;;;8.70;5.03;;;14.60;99.90;;;;;;4983816;28;20424;-58
2022/01/01 12:04:38;;;;;;;7.07;6.13;;;15.00;99.90;;;;;;4981186;28;20433;-57
2022/01/01 12:07:20;;;;;;;8.10;6.57;;;15.20;99.90;;;;;;4983722;28;20429;-58
2022/01/01 12:10:05;;;;;;;6.53;5.90;;;15.30;99.90;;;;;;4984686;28;20432;-59
2022/01/01 12:12:37;;;;;;;7.53;6.10;;;15.30;99.90;;;;;;4983459;28;20467;-56
2022/01/01 12:15:20;;;;;;;7.00;5.83;;;15.40;99.90;;;;;;4982648;28;20959;-56
2022/01/01 12:17:55;;;;;;;7.87;5.70;;;15.50;99.90;;;;;;4983693;28;20453;-59
2022/01/01 12:20:37;;;;;;;6.63;5.40;;;15.70;99.90;;;;;;4981083;28;20500;-57
2022/01/01 12:23:10;;;;;;;7.33;6.00;;;16.00;99.90;;;;;;4982913;28;20432;-58
2022/01/01 12:25:37;;;;;;;6.97;5.40;;;16.60;99.90;;;;;;4980656;28;20503;-57
2022/01/01 12:28:13;;;;;;;8.97;6.93;;;16.60;99.90;;;;;;4981713;28;20444;-56
2022/01/01 12:30:51;;;;;;;6.53;5.37;;;16.50;99.90;;;;;;4983401;28;20429;-57
2022/01/01 12:33:43;;;;;;;8.33;5.83;;;17.00;99.90;;;;;;4981185;28;20447;-57
2022/01/01 12:36:15;;;;;;;5.47;4.70;;;17.20;99.90;;;;;;4971222;28;20465;-57
2022/01/01 12:38:49;;;;;;;5.97;4.57;;;17.20;99.90;;;;;;4984817;28;20432;-58